Time;durP1;ratioP1;P1;durP2;ratioP2;P2;SDS_P1;SDS_P2;PMS_P1;PMS_P2;Temp;Humidity;BMP_temperature;BMP_pressure;BME280_temperature;BME280_humidity;BME280_pressure;Samples;Min_cycle;Max_cycle;Signal;HPM_P1;HPM_P2
2021/12/13 00:01:14;;;;;;;13.10;10.02;;;;;;;9.60;100.00;102418.09;5046820;28;20029;-54
2021/12/13 00:03:45;;;;;;;14.68;10.13;;;;;;;9.63;100.00;102418.19;5034995;28;20025;-55
2021/12/13 00:06:15;;;;;;;21.92;10.15;;;;;;;9.60;100.00;102423.31;5034992;28;20026;-56
2021/12/13 00:08:42;;;;;;;;;;;;;;;9.63;100.00;102413.84;5035341;28;20027;-55
2021/12/13 00:11:16;;;;;;;9.73;8.52;;;;;;;9.63;100.00;102412.97;5042510;28;19917;-55
2021/12/13 00:13:45;;;;;;;14.32;9.38;;;;;;;9.69;100.00;102413.94;5054813;28;20028;-55
2021/12/13 00:16:12;;;;;;;19.33;8.43;;;;;;;9.72;100.00;102413.13;5054745;28;20029;-56
2021/12/13 00:18:43;;;;;;;16.40;9.77;;;;;;;9.74;100.00;102414.94;5054696;28;20037;-55
2021/12/13 00:21:22;;;;;;;13.35;9.45;;;;;;;9.78;100.00;102418.47;5046292;28;20088;-56
2021/12/13 00:23:55;;;;;;;12.50;8.93;;;;;;;9.80;100.00;102427.19;5034738;28;20033;-56
2021/12/13 00:26:46;;;;;;;8.00;7.20;;;;;;;9.86;100.00;102416.91;5034545;28;20029;-55
2021/12/13 00:29:19;;;;;;;11.80;8.25;;;;;;;9.85;100.00;102415.13;5034665;28;20036;-54
2021/12/13 00:32:08;;;;;;;8.05;7.25;;;;;;;9.86;100.00;102422.13;5046957;28;20029;-56
2021/12/13 00:34:40;;;;;;;11.75;6.68;;;;;;;9.86;100.00;102429.94;5054315;28;20022;-55
2021/12/13 00:37:08;;;;;;;9.70;7.63;;;;;;;9.87;100.00;102442.16;5054374;28;20028;-53
2021/12/13 00:39:48;;;;;;;8.15;7.22;;;;;;;9.89;100.00;102437.84;5054295;28;20025;-55
2021/12/13 00:42:15;;;;;;;11.60;7.70;;;;;;;9.85;100.00;102430.78;5039677;28;20021;-53
2021/12/13 00:44:46;;;;;;;16.77;6.82;;;;;;;9.91;100.00;102430.94;5034210;28;20120;-55
2021/12/13 00:47:19;;;;;;;12.25;6.40;;;;;;;9.91;100.00;102436.16;5034348;28;20033;-55
2021/12/13 00:49:49;;;;;;;14.05;7.15;;;;;;;9.95;100.00;102432.75;5034245;28;20036;-53
2021/12/13 00:52:18;;;;;;;9.25;6.88;;;;;;;9.98;100.00;102432.81;5034127;28;20044;-55
2021/12/13 00:54:45;;;;;;;8.68;6.35;;;;;;;9.95;100.00;102432.75;5034090;28;20399;-55
2021/12/13 00:57:31;;;;;;;10.27;6.03;;;;;;;9.97;100.00;102425.81;5034115;28;20542;-53
2021/12/13 01:00:04;;;;;;;4.68;3.67;;;;;;;9.96;100.00;102424.03;5034128;28;20027;-56
2021/12/13 01:02:52;;;;;;;15.75;5.38;;;;;;;9.99;100.00;102434.56;5016829;28;20025;-56
2021/12/13 01:05:23;;;;;;;13.35;4.65;;;;;;;10.00;100.00;102431.09;5034061;28;20036;-54
2021/12/13 01:08:07;;;;;;;5.43;4.07;;;;;;;10.01;100.00;102435.47;5033947;28;20037;-55
2021/12/13 01:10:38;;;;;;;3.33;3.03;;;;;;;10.01;100.00;102427.63;5034925;28;20053;-55
2021/12/13 01:13:09;;;;;;;15.35;4.80;;;;;;;10.03;100.00;102436.34;5053713;28;20379;-56
2021/12/13 01:15:45;;;;;;;3.08;2.80;;;;;;;10.00;100.00;102425.88;5053785;28;20078;-55
2021/12/13 01:18:23;;;;;;;6.30;3.20;;;;;;;10.04;100.00;102432.03;5053904;28;20044;-53
2021/12/13 01:21:31;;;;;;;4.25;3.28;;;;;;;9.98;100.00;102438.03;5053433;28;20040;-55
2021/12/13 01:24:06;;;;;;;4.35;3.95;;;;;;;9.94;100.00;102446.66;5055264;28;20052;-53
2021/12/13 01:26:59;;;;;;;4.72;3.70;;;;;;;9.91;100.00;102444.00;5053888;28;20052;-52
2021/12/13 01:29:27;;;;;;;4.63;4.03;;;;;;;9.89;100.00;102443.06;5051000;28;20040;-52
2021/12/13 01:32:04;;;;;;;4.18;3.58;;;;;;;9.89;100.00;102443.94;5041735;28;20051;-54
2021/12/13 01:34:32;;;;;;;7.40;4.38;;;;;;;9.93;100.00;102449.22;5029464;28;20028;-55
2021/12/13 01:37:14;;;;;;;5.95;4.15;;;;;;;9.90;100.00;102450.94;5033002;28;20476;-52
2021/12/13 01:39:46;;;;;;;6.60;4.85;;;;;;;9.89;100.00;102456.13;5033684;28;20045;-52
2021/12/13 01:42:29;;;;;;;8.27;5.13;;;;;;;9.88;100.00;102454.34;5033576;28;20068;-52
2021/12/13 01:44:58;;;;;;;6.22;5.13;;;;;;;9.91;100.00;102454.44;5041857;28;20020;-55
2021/12/13 01:47:27;;;;;;;6.03;5.40;;;;;;;9.89;100.00;102458.72;5053445;28;20484;-52
2021/12/13 01:50:13;;;;;;;5.40;4.97;;;;;;;9.86;100.00;102461.28;5053684;28;20021;-53
2021/12/13 01:52:40;;;;;;;6.97;5.00;;;;;;;9.82;100.00;102456.84;5053560;28;20020;-55
2021/12/13 01:55:22;;;;;;;3.63;3.33;;;;;;;9.83;100.00;102463.84;5035965;28;20144;-54
2021/12/13 01:57:54;;;;;;;5.43;4.20;;;;;;;9.81;100.00;102455.06;5033627;28;20029;-55
2021/12/13 02:00:33;;;;;;;9.25;4.85;;;;;;;9.77;100.00;102453.25;5033503;28;20072;-53
2021/12/13 02:02:59;;;;;;;4.90;3.72;;;;;;;9.77;100.00;102453.25;5033412;28;20018;-53
2021/12/13 02:05:29;;;;;;;8.60;5.55;;;;;;;9.81;100.00;102460.31;5044990;28;20021;-53
2021/12/13 02:08:03;;;;;;;8.38;6.22;;;;;;;9.77;100.00;102463.69;5053379;28;20048;-56
2021/12/13 02:10:31;;;;;;;7.47;4.60;;;;;;;9.76;100.00;102467.16;5053105;28;20041;-55
2021/12/13 02:13:04;;;;;;;7.78;5.78;;;;;;;9.73;100.00;102461.88;5053205;28;20037;-54
2021/12/13 02:18:25;;;;;;;5.38;4.93;;;;;;;9.70;100.00;102461.81;5037345;28;20040;-55
2021/12/13 02:21:03;;;;;;;10.27;5.82;;;;;;;9.72;100.00;102460.09;5037006;28;20076;-56
2021/12/13 02:23:40;;;;;;;6.93;4.90;;;;;;;9.69;100.00;102460.03;5037021;28;20025;-56
2021/12/13 02:26:06;;;;;;;7.28;5.25;;;;;;;9.73;100.00;102456.66;5036696;28;20113;-52
2021/12/13 02:28:39;;;;;;;6.63;4.65;;;;;;;9.76;100.00;102461.94;5036707;28;20021;-56
2021/12/13 02:31:07;;;;;;;5.72;4.82;;;;;;;9.74;100.00;102461.03;5036803;28;20029;-56
2021/12/13 02:33:41;;;;;;;7.35;4.72;;;;;;;9.70;100.00;102467.03;5019028;28;20075;-55
2021/12/13 02:36:15;;;;;;;9.70;6.47;;;;;;;9.71;100.00;102469.66;5036471;28;20053;-52
2021/12/13 02:38:46;;;;;;;5.10;4.65;;;;;;;9.69;100.00;102465.25;5036726;28;20032;-55
2021/12/13 02:41:14;;;;;;;5.15;4.65;;;;;;;9.70;100.00;102472.25;5036501;28;20472;-52
2021/12/13 02:43:43;;;;;;;5.13;4.63;;;;;;;9.72;100.00;102470.53;5036451;28;20033;-56
2021/12/13 02:46:10;;;;;;;12.05;5.65;;;;;;;9.67;100.00;102472.19;5053066;28;20032;-52
2021/12/13 02:48:38;;;;;;;9.20;5.40;;;;;;;9.69;100.00;102473.09;5056436;28;20104;-53
2021/12/13 02:51:15;;;;;;;6.25;5.20;;;;;;;9.68;100.00;102467.00;5056316;28;20040;-55
2021/12/13 02:53:49;;;;;;;4.55;4.15;;;;;;;9.68;100.00;102468.72;5046334;28;20072;-56
2021/12/13 02:56:17;;;;;;;7.60;5.30;;;;;;;9.69;100.00;102470.47;5036371;28;20041;-53
2021/12/13 02:58:43;;;;;;;6.38;5.82;;;;;;;9.70;100.00;102480.09;5036233;28;20083;-56
2021/12/13 03:01:20;;;;;;;8.20;6.47;;;;;;;9.69;100.00;102471.38;5036394;28;20473;-55
2021/12/13 03:03:50;;;;;;;6.57;5.40;;;;;;;9.71;100.00;102468.81;5036045;28;20037;-54
2021/12/13 03:06:21;;;;;;;5.10;4.70;;;;;;;9.67;100.00;102477.41;5036251;28;20046;-54
2021/12/13 03:09:00;;;;;;;6.35;5.72;;;;;;;9.62;100.00;102463.38;5036170;28;20099;-55
2021/12/13 03:11:32;;;;;;;8.05;5.15;;;;;;;9.63;100.00;102478.19;5035941;28;20052;-53
2021/12/13 03:14:28;;;;;;;7.22;5.95;;;;;;;9.63;100.00;102475.59;5035778;28;20362;-53
2021/12/13 03:17:25;;;;;;;6.28;5.20;;;;;;;9.63;100.00;102471.25;5035933;28;20155;-55
2021/12/13 03:20:05;;;;;;;4.80;4.32;;;;;;;9.59;100.00;102471.16;5018073;28;20025;-54
2021/12/13 03:23:02;;;;;;;;;;;;;;;9.66;100.00;102478.25;5036314;28;20420;-56
2021/12/13 03:25:42;;;;;;;8.50;6.13;;;;;;;9.65;100.00;102469.53;5016042;28;20277;-55
2021/12/13 03:28:35;;;;;;;6.93;5.90;;;;;;;9.63;100.00;102470.38;5016012;28;20030;-54
2021/12/13 03:31:13;;;;;;;7.90;5.32;;;;;;;9.64;100.00;102474.72;5015902;28;20030;-53
2021/12/13 03:33:50;;;;;;;5.90;5.43;;;;;;;9.62;100.00;102473.81;5022661;28;20026;-54
2021/12/13 03:36:22;;;;;;;6.85;6.20;;;;;;;9.60;100.00;102475.50;5035612;28;20037;-53
2021/12/13 03:38:52;;;;;;;6.20;5.43;;;;;;;9.61;100.00;102472.06;5035505;28;20022;-56
2021/12/13 03:41:19;;;;;;;;;;;;;;;9.58;100.00;102472.88;5029330;28;20022;-56
2021/12/13 03:43:54;;;;;;;7.40;6.28;;;;;;;9.62;100.00;102477.31;5030516;28;19915;-56
2021/12/13 03:46:23;;;;;;;6.70;5.55;;;;;;;9.57;100.00;102475.44;5049268;28;20495;-55
2021/12/13 03:48:50;;;;;;;13.18;5.50;;;;;;;9.61;100.00;102465.09;5052306;28;20024;-56
2021/12/13 03:51:24;;;;;;;5.07;4.57;;;;;;;9.65;100.00;102458.22;5055135;28;20090;-55
2021/12/13 03:53:53;;;;;;;5.18;4.13;;;;;;;9.74;100.00;102474.06;5055119;28;20028;-56
2021/12/13 03:56:44;;;;;;;10.30;4.78;;;;;;;9.78;100.00;102460.25;5055158;28;20468;-56
2021/12/13 03:59:19;;;;;;;4.90;4.40;;;;;;;9.83;100.00;102453.41;5010302;28;20037;-54
2021/12/13 04:01:54;;;;;;;5.70;5.20;;;;;;;9.80;100.00;102454.19;5015328;28;20033;-56
2021/12/13 04:04:39;;;;;;;6.97;5.25;;;;;;;9.81;100.00;102461.19;5015295;28;20439;-55
2021/12/13 04:07:47;;;;;;;8.20;5.85;;;;;;;9.73;100.00;102460.16;5021631;28;20041;-52
2021/12/13 04:10:29;;;;;;;5.57;5.10;;;;;;;9.70;100.00;102467.03;5046703;28;20079;-52
2021/12/13 04:12:57;;;;;;;6.90;4.80;;;;;;;9.66;100.00;102463.47;5054861;28;20025;-52
2021/12/13 04:15:52;;;;;;;10.70;6.60;;;;;;;9.67;100.00;102456.53;5054724;28;20021;-52
2021/12/13 04:21:27;;;;;;;7.18;6.47;;;;;;;9.57;100.00;102454.56;5054704;28;20116;-53
2021/12/13 04:23:57;;;;;;;9.63;7.95;;;;;;;9.59;100.00;102463.31;5054527;28;20102;-53
2021/12/13 04:26:24;;;;;;;7.05;6.15;;;;;;;9.53;100.00;102463.16;5054557;28;20052;-53
2021/12/13 04:28:53;;;;;;;9.73;6.43;;;;;;;9.57;100.00;102470.22;5054104;28;20025;-54
2021/12/13 04:31:23;;;;;;;6.55;5.95;;;;;;;9.55;100.00;102462.38;5054522;28;20025;-52
2021/12/13 04:33:55;;;;;;;10.80;7.67;;;;;;;9.56;100.00;102458.00;5054407;28;20025;-51
2021/12/13 04:36:26;;;;;;;9.50;6.90;;;;;;;9.57;100.00;102459.78;5053728;28;20753;-52
2021/12/13 04:38:59;;;;;;;14.45;7.80;;;;;;;9.53;100.00;102463.16;5038001;28;20029;-53
2021/12/13 04:41:30;;;;;;;10.25;7.43;;;;;;;9.49;100.00;102461.34;5026935;28;20030;-53
2021/12/13 04:44:08;;;;;;;8.20;6.75;;;;;;;9.50;100.00;102473.56;5014586;28;20496;-55
2021/12/13 04:46:35;;;;;;;12.75;7.93;;;;;;;9.50;100.00;102468.34;5014583;28;20100;-54
2021/12/13 04:49:05;;;;;;;12.80;7.28;;;;;;;9.51;100.00;102475.31;5048072;28;20115;-53
2021/12/13 04:51:37;;;;;;;;;;;;;;;9.48;100.00;102475.22;5054489;28;20036;-55
2021/12/13 04:54:05;;;;;;;12.23;8.25;;;;;;;9.50;100.00;102476.16;5054032;28;20283;-56
2021/12/13 04:56:30;;;;;;;13.55;8.38;;;;;;;9.51;100.00;102480.53;5054003;28;20031;-56
2021/12/13 04:59:02;;;;;;;13.65;8.88;;;;;;;9.53;100.00;102478.81;5037736;28;20158;-56
2021/12/13 05:01:28;;;;;;;12.27;9.07;;;;;;;9.51;100.00;102465.78;5033951;28;20447;-55
2021/12/13 05:04:03;;;;;;;10.65;8.45;;;;;;;9.45;100.00;102465.63;5033962;28;20128;-55
2021/12/13 05:06:32;;;;;;;8.65;7.63;;;;;;;9.43;100.00;102483.84;5034047;28;20116;-56
2021/12/13 05:09:00;;;;;;;17.70;10.52;;;;;;;9.51;100.00;102476.22;5033837;28;20028;-54
2021/12/13 05:11:31;;;;;;;14.35;10.10;;;;;;;9.47;100.00;102468.28;5033711;28;20491;-55
2021/12/13 05:13:58;;;;;;;14.73;10.15;;;;;;;9.47;100.00;102468.28;5033652;28;20116;-54
2021/12/13 05:16:47;;;;;;;13.98;9.20;;;;;;;9.46;100.00;102471.72;5033877;28;20044;-54
2021/12/13 05:19:16;;;;;;;20.75;11.88;;;;;;;9.51;100.00;102477.94;5050599;28;20044;-55
2021/12/13 05:21:46;;;;;;;16.90;11.20;;;;;;;9.53;100.00;102478.81;5051602;28;20029;-55
2021/12/13 05:24:17;;;;;;;14.55;10.75;;;;;;;9.52;100.00;102469.22;5044090;28;20043;-56
2021/12/13 05:26:56;;;;;;;13.55;10.98;;;;;;;9.54;100.00;102465.84;5053643;28;20024;-55
2021/12/13 05:29:42;;;;;;;19.13;10.02;;;;;;;9.52;100.00;102461.41;5053577;28;20124;-55
2021/12/13 05:32:16;;;;;;;12.98;10.85;;;;;;;9.51;100.00;102470.09;5053572;28;20461;-51
2021/12/13 05:34:45;;;;;;;11.38;9.63;;;;;;;9.53;100.00;102463.16;5053373;28;20057;-56
2021/12/13 05:37:11;;;;;;;12.02;9.85;;;;;;;9.50;100.00;102473.56;5053708;28;20083;-52
2021/12/13 05:39:38;;;;;;;12.63;10.10;;;;;;;9.45;100.00;102465.63;5053398;28;20505;-53
2021/12/13 05:42:09;;;;;;;12.10;8.77;;;;;;;9.42;100.00;102466.44;5040498;28;20350;-55
2021/12/13 05:44:41;;;;;;;12.35;10.80;;;;;;;9.44;100.00;102459.50;5033369;28;20036;-52
2021/12/13 05:47:19;;;;;;;10.68;9.55;;;;;;;9.46;100.00;102464.78;5033784;28;20030;-56
2021/12/13 05:49:45;;;;;;;11.98;9.48;;;;;;;9.49;100.00;102466.56;5035941;28;20040;-54
2021/12/13 05:52:14;;;;;;;14.50;9.63;;;;;;;9.48;100.00;102459.56;5037914;28;20044;-55
2021/12/13 05:54:43;;;;;;;15.40;10.20;;;;;;;9.45;100.00;102455.19;5020080;28;20109;-54
2021/12/13 05:57:11;;;;;;;13.40;9.23;;;;;;;9.51;100.00;102464.88;5037485;28;20406;-55
2021/12/13 05:59:55;;;;;;;13.57;8.05;;;;;;;9.47;100.00;102457.84;5037377;28;20084;-53
2021/12/13 06:02:41;;;;;;;13.18;9.63;;;;;;;9.47;100.00;102466.56;5032450;28;20025;-56
2021/12/13 06:05:18;;;;;;;19.90;9.32;;;;;;;9.47;100.00;102473.50;5017424;28;20390;-54
2021/12/13 06:07:54;;;;;;;9.13;7.88;;;;;;;9.49;100.00;102461.34;5017493;28;20029;-54
2021/12/13 06:10:26;;;;;;;11.50;9.18;;;;;;;9.46;100.00;102466.50;5017505;28;20065;-56
2021/12/13 06:12:58;;;;;;;15.30;9.65;;;;;;;9.47;100.00;102476.09;5035506;28;20163;-56
2021/12/13 06:15:37;;;;;;;12.27;9.80;;;;;;;9.41;100.00;102474.22;5056907;28;20345;-57
2021/12/13 06:18:05;;;;;;;13.13;9.40;;;;;;;9.38;100.00;102482.88;5052021;28;20487;-54
2021/12/13 06:20:47;;;;;;;10.80;8.73;;;;;;;9.45;100.00;102481.28;5057051;28;20028;-54
2021/12/13 06:23:15;;;;;;;10.73;8.27;;;;;;;9.41;100.00;102485.53;5049634;28;20037;-55
2021/12/13 06:25:44;;;;;;;9.40;7.82;;;;;;;9.44;100.00;102480.38;5034132;28;20427;-55
2021/12/13 06:28:20;;;;;;;14.23;9.52;;;;;;;9.46;100.00;102477.81;5039991;28;20396;-53
2021/12/13 06:30:53;;;;;;;12.98;9.23;;;;;;;9.41;100.00;102477.72;5026627;28;20539;-54
2021/12/13 06:33:19;;;;;;;14.88;9.35;;;;;;;9.44;100.00;102485.59;5026806;28;20037;-58
2021/12/13 06:35:51;;;;;;;13.43;9.73;;;;;;;9.40;100.00;102482.88;5025408;28;20168;-56
2021/12/13 06:38:19;;;;;;;15.02;8.43;;;;;;;9.39;100.00;102482.00;5031904;28;20490;-58
2021/12/13 06:40:58;;;;;;;13.48;9.20;;;;;;;9.40;100.00;102480.28;5030590;28;20032;-57
2021/12/13 06:43:26;;;;;;;9.98;8.98;;;;;;;9.36;100.00;102481.94;5021455;28;20030;-56
2021/12/13 06:45:51;;;;;;;12.38;9.75;;;;;;;9.31;100.00;102482.72;5017981;28;20416;-58
2021/12/13 06:48:16;;;;;;;15.73;10.40;;;;;;;9.29;100.00;102485.25;5028756;28;20021;-60
2021/12/13 06:50:46;;;;;;;14.95;9.07;;;;;;;9.28;100.00;102499.16;5027800;28;20026;-59
2021/12/13 06:53:19;;;;;;;11.95;9.52;;;;;;;9.24;100.00;102499.91;5021577;28;20036;-58
2021/12/13 06:55:46;;;;;;;12.73;9.90;;;;;;;9.25;100.00;102499.09;5017239;28;20484;-59
2021/12/13 06:58:14;;;;;;;10.35;9.10;;;;;;;9.24;100.00;102497.31;5011852;28;20037;-56
2021/12/13 07:00:40;;;;;;;11.30;9.00;;;;;;;9.22;100.00;102501.63;5011386;28;20409;-59
2021/12/13 07:03:09;;;;;;;11.88;8.85;;;;;;;9.18;100.00;102499.78;5011637;28;20028;-58
2021/12/13 07:05:34;;;;;;;12.30;9.48;;;;;;;9.21;100.00;102512.00;4969346;28;20700;-56
2021/12/13 07:08:15;;;;;;;14.23;9.82;;;;;;;9.17;100.00;102508.44;4984676;28;20041;-53
2021/12/13 07:11:05;;;;;;;15.85;9.43;;;;;;;9.19;100.00;102504.16;4962850;28;20053;-57
2021/12/13 07:13:58;;;;;;;13.23;10.10;;;;;;;9.18;100.00;102499.78;4942084;28;20689;-59
2021/12/13 07:16:32;;;;;;;12.02;9.55;;;;;;;9.28;100.00;102509.56;4892733;28;22485;-58
2021/12/13 07:19:21;;;;;;;16.05;9.68;;;;;;;9.31;100.00;102498.34;4823946;28;20913;-56
2021/12/13 07:21:54;;;;;;;9.45;8.25;;;;;;;9.31;100.00;102504.47;4777953;28;20657;-56
2021/12/13 07:24:26;;;;;;;11.50;9.80;;;;;;;9.34;100.00;102509.75;4721688;28;21155;-58
2021/12/13 07:26:56;;;;;;;16.23;9.20;;;;;;;9.36;100.00;102520.19;4620060;28;20040;-58
2021/12/13 07:29:25;;;;;;;12.77;10.57;;;;;;;9.35;100.00;102527.16;4540131;28;20803;-58
2021/12/13 07:32:27;;;;;;;22.60;9.27;;;;;;;9.40;100.00;102520.28;4586396;28;20548;-58
2021/12/13 07:35:01;;;;;;;10.65;7.82;;;;;;;9.42;100.00;102518.63;4736933;28;20042;-59
2021/12/13 07:37:33;;;;;;;10.75;7.50;;;;;;;9.43;100.00;102529.94;4733024;28;20047;-57
2021/12/13 07:40:26;;;;;;;12.27;7.68;;;;;;;9.39;100.00;102521.13;4740650;28;22604;-55
2021/12/13 07:43:09;;;;;;;8.27;5.82;;;;;;;9.35;100.00;102518.44;4743833;28;20096;-59
2021/12/13 07:45:38;;;;;;;12.77;6.75;;;;;;;9.37;100.00;102525.44;4789548;28;20026;-58
2021/12/13 07:48:13;;;;;;;10.23;7.55;;;;;;;9.33;100.00;102523.63;4784249;28;22947;-56
2021/12/13 07:50:42;;;;;;;8.27;6.35;;;;;;;9.41;100.00;102542.94;4774499;28;20716;-59
2021/12/13 07:53:12;;;;;;;10.55;6.05;;;;;;;9.41;100.00;102537.72;4763733;28;22248;-58
2021/12/13 07:55:46;;;;;;;10.43;6.28;;;;;;;9.42;100.00;102539.50;4707165;28;20038;-57
2021/12/13 07:58:16;;;;;;;8.90;5.50;;;;;;;9.41;100.00;102532.50;4729230;28;20037;-60
2021/12/13 08:00:41;;;;;;;10.27;5.25;;;;;;;9.42;100.00;102543.81;4735946;28;21204;-56
2021/12/13 08:03:11;;;;;;;12.30;6.50;;;;;;;9.43;100.00;102545.59;4749332;28;20041;-57
2021/12/13 08:05:43;;;;;;;15.52;7.43;;;;;;;9.44;100.00;102545.59;4749397;28;20021;-58
2021/12/13 08:08:17;;;;;;;14.45;7.18;;;;;;;9.45;100.00;102551.72;4728222;28;21345;-58
2021/12/13 08:10:44;;;;;;;14.45;6.57;;;;;;;9.47;100.00;102546.53;4693044;22;22411;-53
2021/12/13 08:13:17;;;;;;;10.93;7.57;;;;;;;9.51;100.00;102554.47;4645720;28;20034;-58
2021/12/13 08:15:53;;;;;;;10.10;6.80;;;;;;;9.53;100.00;102564.94;4501112;28;20633;-58
2021/12/13 08:18:32;;;;;;;7.10;5.63;;;;;;;9.52;100.00;102565.78;4357571;28;20738;-59
2021/12/13 08:21:02;;;;;;;7.38;6.45;;;;;;;9.56;100.00;102562.38;4425665;28;21961;-59
2021/12/13 08:23:35;;;;;;;9.15;6.97;;;;;;;9.48;100.00;102545.69;4319067;28;20092;-58
2021/12/13 08:26:03;;;;;;;8.27;6.43;;;;;;;9.53;100.00;102557.09;4342786;28;20031;-57
2021/12/13 08:28:42;;;;;;;6.60;5.88;;;;;;;9.52;100.00;102555.34;4495792;28;21427;-57
2021/12/13 08:31:18;;;;;;;9.13;6.63;;;;;;;9.54;100.00;102548.44;4551784;28;20758;-57
2021/12/13 08:33:47;;;;;;;8.73;7.20;;;;;;;9.52;100.00;102555.34;4546676;28;22926;-58
2021/12/13 08:36:14;;;;;;;8.43;6.72;;;;;;;9.39;100.00;102539.41;4490178;28;20038;-58
2021/12/13 08:38:43;;;;;;;10.75;6.80;;;;;;;9.49;100.00;102555.28;4523504;28;20239;-57
2021/12/13 08:41:14;;;;;;;11.00;7.30;;;;;;;9.46;100.00;102556.09;4504009;28;23484;-59
2021/12/13 08:43:45;;;;;;;8.18;5.97;;;;;;;9.46;100.00;102555.22;4497908;28;20981;-58
2021/12/13 08:46:13;;;;;;;13.88;7.00;;;;;;;9.40;100.00;102546.38;4489744;28;20151;-60
2021/12/13 08:48:48;;;;;;;10.25;6.72;;;;;;;9.40;100.00;102548.09;4495398;28;20689;-59
2021/12/13 08:51:27;;;;;;;14.25;7.10;;;;;;;9.27;100.00;102528.72;4540323;28;22849;-57
2021/12/13 08:54:05;;;;;;;9.30;7.45;;;;;;;9.41;100.00;102542.94;4466182;28;22780;-58
2021/12/13 08:56:35;;;;;;;5.13;4.63;;;;;;;9.42;100.00;102534.28;4489222;28;22939;-58
2021/12/13 08:59:09;;;;;;;4.68;4.18;;;;;;;9.40;100.00;102546.38;4429865;28;20732;-56
2021/12/13 09:01:45;;;;;;;10.00;5.28;;;;;;;9.46;100.00;102550.88;4399727;28;20053;-57
2021/12/13 09:04:21;;;;;;;5.25;4.75;;;;;;;9.50;100.00;102557.03;4388854;28;20611;-59
2021/12/13 09:06:52;;;;;;;5.72;4.82;;;;;;;9.51;100.00;102551.00;4209271;28;21981;-57
2021/12/13 09:09:19;;;;;;;7.57;3.70;;;;;;;9.62;100.00;102555.59;4613090;28;20962;-58
2021/12/13 09:11:57;;;;;;;8.32;4.50;;;;;;;9.65;100.00;102549.56;4587859;28;20171;-59
2021/12/13 09:14:23;;;;;;;7.10;4.93;;;;;;;9.68;100.00;102552.22;4557728;28;21017;-59
2021/12/13 09:17:14;;;;;;;7.88;3.97;;;;;;;9.72;100.00;102569.72;4619445;28;20766;-59
2021/12/13 09:19:54;;;;;;;5.35;4.30;;;;;;;9.77;100.00;102568.09;4576007;28;20050;-57
2021/12/13 09:22:51;;;;;;;6.18;5.68;;;;;;;9.58;100.00;102540.72;4689953;28;20121;-56
2021/12/13 09:25:34;;;;;;;5.97;4.05;;;;;;;9.78;100.00;102569.88;4620819;28;21423;-58
2021/12/13 09:28:10;;;;;;;4.88;4.38;;;;;;;9.77;100.00;102563.78;4643605;28;22486;-59
2021/12/13 09:30:58;;;;;;;5.95;4.13;;;;;;;9.82;100.00;102576.94;4358649;28;21939;-58
2021/12/13 09:33:28;;;;;;;2.97;2.78;;;;;;;9.83;100.00;102583.94;4480916;28;20120;-58
2021/12/13 09:36:05;;;;;;;3.88;3.55;;;;;;;9.81;100.00;102588.22;4607915;28;20137;-59
2021/12/13 09:38:48;;;;;;;9.73;4.10;;;;;;;9.92;100.00;102589.31;4565404;28;22253;-59
2021/12/13 09:41:20;;;;;;;7.15;4.63;;;;;;;9.99;100.00;102596.47;4665073;28;20038;-55
2021/12/13 09:43:54;;;;;;;5.03;4.30;;;;;;;9.97;100.00;102582.47;4645835;28;20071;-59
2021/12/13 09:46:38;;;;;;;4.93;3.88;;;;;;;10.13;100.00;102604.59;4566116;28;20624;-58
2021/12/13 09:49:19;;;;;;;10.48;4.65;;;;;;;10.13;100.00;102615.03;4573524;28;22091;-58
2021/12/13 09:52:07;;;;;;;4.80;4.20;;;;;;;10.15;100.00;102609.00;4593129;28;21801;-57
2021/12/13 09:55:03;;;;;;;5.07;4.25;;;;;;;10.15;100.00;102616.84;4583668;28;20061;-57
2021/12/13 09:57:35;;;;;;;4.25;3.85;;;;;;;10.15;100.00;102613.38;4605621;28;20744;-58
2021/12/13 10:00:15;;;;;;;4.68;3.63;;;;;;;9.98;100.00;102592.09;4612703;28;20666;-58
2021/12/13 10:02:46;;;;;;;7.15;5.18;;;;;;;10.17;100.00;102617.78;4580466;28;24060;-57
2021/12/13 10:05:16;;;;;;;7.65;4.53;;;;;;;10.19;100.00;102610.84;4615045;28;20037;-60
2021/12/13 10:07:48;;;;;;;6.22;3.88;;;;;;;10.24;100.00;102614.44;4620117;28;20030;-54
2021/12/13 10:10:29;;;;;;;4.18;3.78;;;;;;;10.13;100.00;102595.03;4589454;28;21243;-54
2021/12/13 10:13:03;;;;;;;6.22;4.32;;;;;;;10.18;100.00;102624.78;4503013;28;20090;-55
2021/12/13 10:15:45;;;;;;;6.20;3.70;;;;;;;10.16;100.00;102626.47;4480367;28;25797;-59
2021/12/13 10:18:16;;;;;;;6.25;4.32;;;;;;;10.15;100.00;102624.69;4558779;28;23250;-58
2021/12/13 10:20:46;;;;;;;4.40;3.97;;;;;;;10.09;100.00;102613.19;4485003;28;23130;-58
2021/12/13 10:23:17;;;;;;;7.55;4.70;;;;;;;10.15;100.00;102614.25;4462957;28;20162;-56
2021/12/13 10:25:46;;;;;;;6.20;4.65;;;;;;;10.13;100.00;102626.38;4557080;28;22331;-58
2021/12/13 10:28:17;;;;;;;6.40;4.32;;;;;;;10.15;100.00;102627.28;4589670;28;20044;-57
2021/12/13 10:30:47;;;;;;;9.65;4.78;;;;;;;10.19;100.00;102626.50;4621496;28;21635;-58
2021/12/13 10:33:16;;;;;;;5.32;4.15;;;;;;;10.21;100.00;102630.06;4658143;28;21771;-58
2021/12/13 10:35:43;;;;;;;6.40;4.47;;;;;;;10.18;100.00;102627.38;4681997;28;20109;-57
2021/12/13 10:38:23;;;;;;;7.65;4.85;;;;;;;10.16;100.00;102625.56;4681518;28;21567;-57
2021/12/13 10:40:59;;;;;;;7.97;4.35;;;;;;;10.11;100.00;102628.03;4668194;28;20037;-57
2021/12/13 10:43:31;;;;;;;5.47;4.20;;;;;;;10.07;100.00;102620.13;4644445;28;20975;-55
2021/12/13 10:46:02;;;;;;;4.35;3.50;;;;;;;10.03;100.00;102608.72;4648207;28;20061;-57
2021/12/13 10:48:30;;;;;;;3.97;3.58;;;;;;;10.12;100.00;102619.38;4593345;28;20429;-58
2021/12/13 10:51:05;;;;;;;6.95;4.88;;;;;;;10.08;100.00;102625.38;4605576;28;20153;-57
2021/12/13 10:53:32;;;;;;;4.93;3.72;;;;;;;10.03;100.00;102618.31;4642004;28;20048;-55
2021/12/13 10:56:03;;;;;;;5.93;4.07;;;;;;;10.04;100.00;102633.09;4627755;28;20125;-56
2021/12/13 10:58:33;;;;;;;6.32;4.78;;;;;;;10.11;100.00;102625.44;4583406;28;20166;-58
2021/12/13 11:01:05;;;;;;;;;;;;;;;10.10;100.00;102634.13;4632326;28;22125;-58
2021/12/13 11:03:33;;;;;;;5.75;3.92;;;;;;;10.15;100.00;102623.84;4614482;28;20007;-58
2021/12/13 11:06:01;;;;;;;10.93;5.13;;;;;;;10.16;100.00;102610.78;4586623;28;20038;-59
2021/12/13 11:08:28;;;;;;;8.88;4.88;;;;;;;10.20;100.00;102617.84;4545108;28;21327;-57
2021/12/13 11:11:00;;;;;;;10.20;3.70;;;;;;;10.21;100.00;102623.94;4447458;28;24316;-58
2021/12/13 11:13:30;;;;;;;8.20;4.10;;;;;;;10.23;100.00;102622.28;4523652;28;22789;-60
2021/12/13 11:16:06;;;;;;;4.82;3.88;;;;;;;10.18;100.00;102624.78;4447876;28;20042;-61
2021/12/13 11:18:32;;;;;;;4.95;4.28;;;;;;;10.12;100.00;102614.16;4467956;28;20676;-58
2021/12/13 11:21:08;;;;;;;5.95;3.75;;;;;;;10.13;100.00;102621.13;4446478;28;20449;-61
2021/12/13 11:23:34;;;;;;;4.18;3.60;;;;;;;10.15;100.00;102618.59;4432537;28;21857;-57
2021/12/13 11:26:06;;;;;;;8.98;4.18;;;;;;;10.20;100.00;102607.38;4356505;28;22909;-56
2021/12/13 11:28:34;;;;;;;5.45;4.50;;;;;;;10.22;100.00;102610.94;4520987;28;21082;-58
2021/12/13 11:31:07;;;;;;;8.32;5.18;;;;;;;10.16;100.00;102609.91;4495175;28;21942;-58
2021/12/13 11:33:48;;;;;;;9.40;4.03;;;;;;;10.18;100.00;102608.22;4434751;28;20721;-59
2021/12/13 11:37:00;;;;;;;3.85;3.50;;;;;;;10.11;100.00;102601.94;4383387;28;20500;-58
2021/12/13 11:39:56;;;;;;;6.10;4.65;;;;;;;10.21;100.00;102593.50;4389332;28;20053;-59
2021/12/13 11:42:37;;;;;;;4.55;3.85;;;;;;;10.23;100.00;102597.00;4401668;28;20087;-56
2021/12/13 11:45:15;;;;;;;;;;;;;;;10.26;100.00;102591.88;4484573;28;20223;-56
2021/12/13 11:47:40;;;;;;;12.27;4.28;;;;;;;10.15;100.00;102577.66;4477233;28;23132;-58
2021/12/13 11:50:26;;;;;;;4.65;3.42;;;;;;;10.19;100.00;102595.16;4566886;28;21172;-58
2021/12/13 11:53:12;;;;;;;3.67;3.33;;;;;;;10.18;100.00;102592.53;4537368;28;22164;-58
2021/12/13 11:56:06;;;;;;;9.75;3.33;;;;;;;10.17;100.00;102596.88;4459103;28;22165;-58
2021/12/13 11:59:00;;;;;;;5.13;3.63;;;;;;;10.18;100.00;102595.16;4576517;28;21659;-58
2021/12/13 12:01:57;;;;;;;4.35;3.38;;;;;;;10.22;100.00;102595.25;4534177;28;20143;-57